createdAt,value
2018-05-09T00:02:03.355Z,0.80
2018-05-09T00:04:30.856Z,0.80
2018-05-09T00:06:58.338Z,0.70
2018-05-09T00:09:26.013Z,0.77
2018-05-09T00:11:53.528Z,0.83
2018-05-09T00:14:21.021Z,0.90
2018-05-09T00:16:49.309Z,1.10
2018-05-09T00:19:17.583Z,1.10
2018-05-09T00:21:45.048Z,1.30
2018-05-09T00:24:12.575Z,0.80
2018-05-09T00:26:40.055Z,1.10
2018-05-09T00:29:07.552Z,1.00
2018-05-09T00:31:35.019Z,0.97
2018-05-09T00:34:02.512Z,0.97
2018-05-09T00:36:29.973Z,0.90
2018-05-09T00:38:57.470Z,0.80
2018-05-09T00:41:25.824Z,0.90
2018-05-09T00:43:53.289Z,0.77
2018-05-09T00:46:20.782Z,0.87
2018-05-09T00:48:48.244Z,0.93
2018-05-09T00:51:15.741Z,0.90
2018-05-09T00:53:43.973Z,0.90
2018-05-09T00:56:11.461Z,0.80
2018-05-09T00:58:38.941Z,0.87
2018-05-09T01:01:06.535Z,0.90
2018-05-09T01:03:34.780Z,0.93
2018-05-09T01:06:02.260Z,0.80
2018-05-09T01:08:29.742Z,1.00
2018-05-09T01:10:57.240Z,0.93
2018-05-09T01:13:24.708Z,0.83
2018-05-09T01:15:52.186Z,0.90
2018-05-09T01:18:20.444Z,1.13
2018-05-09T01:20:47.924Z,1.00
2018-05-09T01:23:15.418Z,0.87
2018-05-09T01:25:42.888Z,0.70
2018-05-09T01:28:10.393Z,0.87
2018-05-09T01:30:37.869Z,1.00
2018-05-09T01:33:05.360Z,0.80
2018-05-09T01:35:32.823Z,0.80
2018-05-09T01:38:00.303Z,1.00
2018-05-09T01:40:27.784Z,0.80
2018-05-09T01:42:55.725Z,0.97
2018-05-09T01:45:23.272Z,1.10
2018-05-09T01:47:51.535Z,0.90
2018-05-09T01:50:19.012Z,1.00
2018-05-09T01:52:46.501Z,0.80
2018-05-09T01:55:13.965Z,1.07
2018-05-09T01:57:41.453Z,0.77
2018-05-09T02:00:09.696Z,1.00
2018-05-09T02:02:37.204Z,1.30
2018-05-09T02:05:05.453Z,0.90
2018-05-09T02:07:32.916Z,1.00
2018-05-09T02:10:01.256Z,1.00
2018-05-09T02:12:29.531Z,1.07
2018-05-09T02:14:57.103Z,1.10
2018-05-09T02:17:24.590Z,1.30
2018-05-09T02:19:52.872Z,1.00
2018-05-09T02:22:21.160Z,0.87
2018-05-09T02:24:48.646Z,0.90
2018-05-09T02:27:16.908Z,1.37
2018-05-09T02:29:44.400Z,0.97
2018-05-09T02:32:11.868Z,1.17
2018-05-09T02:34:40.138Z,0.90
2018-05-09T02:37:07.696Z,0.97
2018-05-09T02:39:35.166Z,0.97
2018-05-09T02:42:02.656Z,0.97
2018-05-09T02:44:30.120Z,1.17
2018-05-09T02:46:57.647Z,0.90
2018-05-09T02:49:25.165Z,1.10
2018-05-09T02:51:52.690Z,1.10
2018-05-09T02:54:20.163Z,1.20
2018-05-09T02:56:47.782Z,1.10
2018-05-09T02:59:15.244Z,1.20
2018-05-09T03:01:42.765Z,0.90
2018-05-09T03:04:10.241Z,0.80
2018-05-09T03:06:37.743Z,1.20
2018-05-09T03:09:05.216Z,0.90
2018-05-09T03:11:32.720Z,1.30
2018-05-09T03:14:00.197Z,0.77
2018-05-09T03:16:27.743Z,1.03
2018-05-09T03:18:55.225Z,1.27
2018-05-09T03:21:22.704Z,1.07
2018-05-09T03:23:50.224Z,0.87
2018-05-09T03:26:17.688Z,0.90
2018-05-09T03:28:45.201Z,1.00
2018-05-09T03:31:12.680Z,1.00
2018-05-09T03:33:40.198Z,1.50
2018-05-09T03:36:07.762Z,1.03
2018-05-09T03:38:36.021Z,0.93
2018-05-09T03:41:03.495Z,0.90
2018-05-09T03:43:30.989Z,1.00
2018-05-09T03:45:59.238Z,1.03
2018-05-09T03:48:26.786Z,1.10
2018-05-09T03:50:54.280Z,1.23
2018-05-09T03:53:21.823Z,1.10
2018-05-09T03:55:49.300Z,1.20
2018-05-09T03:58:16.794Z,0.90
2018-05-09T04:00:44.295Z,0.90
2018-05-09T04:03:24.557Z,0.90
2018-05-09T04:06:03.790Z,1.47
2018-05-09T04:08:44.793Z,1.40
2018-05-09T04:11:12.275Z,1.00
2018-05-09T04:13:40.513Z,1.03
2018-05-09T04:16:08.157Z,1.20
2018-05-09T04:18:35.630Z,1.10
2018-05-09T04:21:03.129Z,1.40
2018-05-09T04:23:30.605Z,1.20
2018-05-09T04:28:31.892Z,1.33
2018-05-09T04:30:59.430Z,1.07
2018-05-09T04:33:27.803Z,1.50
2018-05-09T04:35:56.054Z,1.20
2018-05-09T04:38:23.546Z,1.10
2018-05-09T04:40:51.040Z,1.63
2018-05-09T04:43:18.560Z,1.03
2018-05-09T04:45:46.032Z,1.30
2018-05-09T04:48:13.531Z,1.40
2018-05-09T04:50:42.601Z,1.73
2018-05-09T04:53:10.118Z,1.73
2018-05-09T04:55:37.628Z,1.53
2018-05-09T04:58:05.867Z,1.97
2018-05-09T05:00:33.352Z,2.10
2018-05-09T05:03:00.842Z,1.80
2018-05-09T05:05:29.094Z,2.47
2018-05-09T05:07:56.615Z,2.20
2018-05-09T05:10:24.095Z,2.00
2018-05-09T05:12:51.630Z,1.77
2018-05-09T05:15:19.983Z,1.50
2018-05-09T05:17:47.477Z,1.83
2018-05-09T05:20:16.469Z,1.33
2018-05-09T05:22:44.084Z,1.27
2018-05-09T05:25:12.424Z,1.57
2018-05-09T05:27:39.880Z,1.63
2018-05-09T05:30:07.388Z,1.50
2018-05-09T05:32:34.860Z,1.53
2018-05-09T05:35:02.341Z,1.10
2018-05-09T05:37:30.728Z,1.70
2018-05-09T05:39:58.452Z,1.40
2018-05-09T05:42:26.108Z,1.17
2018-05-09T05:44:53.603Z,1.30
2018-05-09T05:47:21.084Z,1.43
2018-05-09T05:49:48.572Z,1.70
2018-05-09T05:52:16.065Z,1.77
2018-05-09T05:54:43.541Z,1.93
2018-05-09T05:57:11.044Z,1.60
2018-05-09T05:59:38.596Z,1.70
2018-05-09T06:02:06.112Z,1.40
2018-05-09T06:04:33.593Z,1.50
2018-05-09T06:07:01.077Z,1.57
2018-05-09T06:09:28.607Z,1.50
2018-05-09T06:11:56.159Z,1.60
2018-05-09T06:14:23.631Z,1.57
2018-05-09T06:16:51.979Z,1.60
2018-05-09T06:19:19.474Z,1.50
2018-05-09T06:21:49.633Z,1.50
2018-05-09T06:24:17.945Z,1.40
2018-05-09T06:26:45.384Z,1.17
2018-05-09T06:29:13.648Z,1.57
2018-05-09T06:31:41.113Z,1.47
2018-05-09T06:34:08.797Z,1.27
2018-05-09T06:36:37.776Z,1.80
2018-05-09T06:39:05.265Z,1.20
2018-05-09T06:41:32.817Z,1.43
2018-05-09T06:44:00.240Z,1.23
2018-05-09T06:46:28.480Z,1.10
2018-05-09T06:48:56.000Z,1.63
2018-05-09T06:51:24.276Z,1.40
2018-05-09T06:53:52.531Z,1.10
2018-05-09T06:56:19.996Z,1.60
2018-05-09T06:58:47.480Z,1.63
2018-05-09T07:01:14.956Z,1.20
2018-05-09T07:03:42.562Z,1.10
2018-05-09T07:06:10.162Z,0.83
2018-05-09T07:08:38.389Z,1.50
2018-05-09T07:11:05.881Z,1.50
2018-05-09T07:13:34.269Z,1.23
2018-05-09T07:16:01.758Z,1.17
2018-05-09T07:18:29.998Z,1.43
2018-05-09T07:20:57.490Z,1.00
2018-05-09T07:23:24.960Z,1.00
2018-05-09T07:25:52.494Z,1.20
2018-05-09T07:28:19.963Z,1.50
2018-05-09T07:30:47.441Z,1.20
2018-05-09T07:33:14.913Z,1.30
2018-05-09T07:35:42.401Z,1.13
2018-05-09T07:38:10.004Z,1.30
2018-05-09T07:40:37.496Z,1.20
2018-05-09T07:43:05.737Z,1.30
2018-05-09T07:45:33.224Z,1.27
2018-05-09T07:48:00.709Z,1.30
2018-05-09T07:50:28.984Z,1.40
2018-05-09T07:52:56.477Z,1.30
2018-05-09T07:55:24.752Z,1.70
2018-05-09T07:57:52.221Z,1.30
2018-05-09T08:00:20.504Z,1.50
2018-05-09T08:02:47.998Z,1.57
2018-05-09T08:05:16.236Z,1.70
2018-05-09T08:07:44.364Z,1.40
2018-05-09T08:10:12.600Z,1.43
2018-05-09T08:12:40.112Z,1.77
2018-05-09T08:15:07.596Z,1.70
2018-05-09T08:17:35.270Z,1.40
2018-05-09T08:20:02.737Z,1.50
2018-05-09T08:22:30.232Z,1.92
2018-05-09T08:24:58.460Z,1.40
2018-05-09T08:27:26.005Z,1.60
2018-05-09T08:29:53.621Z,1.20
2018-05-09T08:32:21.123Z,1.60
2018-05-09T08:34:49.380Z,1.58
2018-05-09T08:37:16.862Z,1.77
2018-05-09T08:39:44.332Z,1.60
2018-05-09T08:42:11.824Z,1.55
2018-05-09T08:44:40.068Z,1.40
2018-05-09T08:47:07.568Z,1.37
2018-05-09T08:49:35.046Z,1.55
2018-05-09T08:52:02.520Z,1.40
2018-05-09T08:54:30.789Z,1.30
2018-05-09T08:56:58.264Z,1.42
2018-05-09T08:59:25.760Z,1.62
2018-05-09T09:01:54.008Z,1.58
2018-05-09T09:04:21.561Z,1.30
2018-05-09T09:06:49.757Z,2.10
2018-05-09T09:09:17.244Z,1.62
2018-05-09T09:11:44.740Z,1.30
2018-05-09T09:14:12.269Z,1.05
2018-05-09T09:16:39.744Z,1.50
2018-05-09T09:19:07.237Z,1.90
2018-05-09T09:21:34.723Z,1.33
2018-05-09T09:24:02.198Z,1.40
2018-05-09T09:26:30.452Z,1.15
2018-05-09T09:28:57.925Z,1.20
2018-05-09T09:31:25.435Z,1.27
2018-05-09T09:33:53.707Z,1.60
2018-05-09T09:36:21.201Z,1.35
2018-05-09T09:38:49.452Z,1.05
2018-05-09T09:41:16.979Z,1.80
2018-05-09T09:43:44.448Z,1.25
2018-05-09T09:46:11.949Z,1.27
2018-05-09T09:48:39.420Z,1.37
2018-05-09T09:51:06.937Z,1.40
2018-05-09T09:53:35.168Z,1.23
2018-05-09T09:56:02.669Z,1.30
2018-05-09T09:58:30.157Z,1.37
2018-05-09T10:00:57.637Z,1.27
2018-05-09T10:03:25.124Z,1.30
2018-05-09T10:05:52.615Z,1.15
2018-05-09T10:08:20.104Z,1.10
2018-05-09T10:10:48.354Z,1.15
2018-05-09T10:13:16.607Z,1.73
2018-05-09T10:15:44.077Z,1.42
2018-05-09T10:18:11.569Z,1.35
2018-05-09T10:20:39.811Z,1.27
2018-05-09T10:23:07.324Z,1.20
2018-05-09T10:25:34.801Z,1.15
2018-05-09T10:28:03.083Z,1.45
2018-05-09T10:30:30.748Z,1.48
2018-05-09T10:32:58.268Z,1.60
2018-05-09T10:35:25.746Z,1.35
2018-05-09T10:37:53.248Z,1.30
2018-05-09T10:40:20.900Z,1.60
2018-05-09T10:42:48.373Z,1.50
2018-05-09T10:45:15.860Z,1.50
2018-05-09T10:47:43.326Z,1.23
2018-05-09T10:50:10.932Z,1.20
2018-05-09T10:52:39.912Z,1.30
2018-05-09T10:55:07.404Z,0.95
2018-05-09T10:57:34.878Z,1.00
2018-05-09T11:00:02.370Z,1.10
2018-05-09T11:02:30.613Z,1.10
2018-05-09T11:04:58.143Z,0.90
2018-05-09T11:07:26.458Z,1.30
2018-05-09T11:09:54.151Z,1.00
2018-05-09T11:12:21.661Z,1.02
2018-05-09T11:14:49.911Z,1.12
2018-05-09T11:17:17.435Z,1.20
2018-05-09T11:19:44.940Z,1.10
2018-05-09T11:22:12.577Z,1.45
2018-05-09T11:24:40.028Z,0.98
2018-05-09T11:27:08.288Z,1.20
2018-05-09T11:29:35.755Z,1.20
2018-05-09T11:32:03.257Z,1.40
2018-05-09T11:34:30.729Z,1.40
2018-05-09T11:36:58.267Z,1.25
2018-05-09T11:39:25.757Z,1.20
2018-05-09T11:41:53.258Z,1.25
2018-05-09T11:44:20.741Z,1.40
2018-05-09T11:46:48.239Z,1.02
2018-05-09T11:49:15.805Z,1.10
2018-05-09T11:51:43.269Z,1.20
2018-05-09T11:54:10.755Z,1.05
2018-05-09T11:56:38.224Z,1.10
2018-05-09T11:59:05.724Z,1.35
2018-05-09T12:01:33.189Z,1.30
2018-05-09T12:04:00.688Z,1.23
2018-05-09T12:06:28.947Z,1.62
2018-05-09T12:08:56.435Z,1.25
2018-05-09T12:11:23.923Z,1.40
2018-05-09T12:13:52.330Z,1.20
2018-05-09T12:16:20.569Z,1.10
2018-05-09T12:18:48.062Z,1.15
2018-05-09T12:21:15.556Z,1.27
2018-05-09T12:23:43.801Z,1.27
2018-05-09T12:26:11.304Z,1.33
2018-05-09T12:28:39.595Z,0.90
2018-05-09T12:31:07.849Z,1.10
2018-05-09T12:33:35.318Z,1.27
2018-05-09T12:36:02.836Z,0.98
2018-05-09T12:38:31.116Z,1.27
2018-05-09T12:40:59.414Z,0.88
2018-05-09T12:43:26.901Z,1.20
2018-05-09T12:45:54.563Z,1.25
2018-05-09T12:48:22.048Z,0.93
2018-05-09T12:50:49.576Z,0.95
2018-05-09T12:53:17.094Z,0.70
2018-05-09T12:55:44.624Z,0.73
2018-05-09T12:58:12.540Z,0.77
2018-05-09T13:00:40.047Z,0.75
2018-05-09T13:03:07.536Z,1.10
2018-05-09T13:05:35.025Z,1.10
2018-05-09T13:08:02.508Z,0.95
2018-05-09T13:10:30.834Z,0.80
2018-05-09T13:12:58.377Z,0.90
2018-05-09T13:15:25.866Z,0.80
2018-05-09T13:17:54.128Z,0.95
2018-05-09T13:20:22.382Z,1.33
2018-05-09T13:22:50.697Z,0.70
2018-05-09T13:25:18.161Z,0.73
2018-05-09T13:27:45.650Z,0.82
2018-05-09T13:30:13.993Z,0.90
2018-05-09T13:32:41.508Z,0.75
2018-05-09T13:35:09.740Z,0.68
2018-05-09T13:37:37.257Z,0.95
2018-05-09T13:40:04.759Z,0.80
2018-05-09T13:42:33.069Z,0.75
2018-05-09T13:45:00.593Z,0.77
2018-05-09T13:47:28.100Z,0.65
2018-05-09T13:49:55.600Z,0.93
2018-05-09T13:52:23.120Z,0.60
2018-05-09T13:54:50.616Z,1.15
2018-05-09T13:57:18.094Z,0.90
2018-05-09T13:59:45.603Z,0.93
2018-05-09T14:02:13.895Z,1.10
2018-05-09T14:04:41.403Z,0.95
2018-05-09T14:07:09.654Z,0.90
2018-05-09T14:09:37.156Z,0.93
2018-05-09T14:12:05.405Z,0.85
2018-05-09T14:14:32.976Z,0.68
2018-05-09T14:17:00.444Z,0.85
2018-05-09T14:19:27.944Z,0.68
2018-05-09T14:21:55.453Z,0.80
2018-05-09T14:24:22.956Z,0.73
2018-05-09T14:26:51.176Z,0.73
2018-05-09T14:29:18.669Z,0.90
2018-05-09T14:31:46.904Z,1.15
2018-05-09T14:34:14.473Z,0.68
2018-05-09T14:36:41.948Z,0.70
2018-05-09T14:39:09.441Z,0.90
2018-05-09T14:41:36.917Z,0.98
2018-05-09T14:44:04.413Z,0.80
2018-05-09T14:46:32.787Z,0.60
2018-05-09T14:49:00.277Z,0.73
2018-05-09T14:51:28.581Z,0.60
2018-05-09T14:53:56.129Z,0.50
2018-05-09T14:56:23.703Z,0.40
2018-05-09T14:58:51.237Z,0.80
2018-05-09T15:01:18.720Z,0.70
2018-05-09T15:03:46.193Z,0.50
2018-05-09T15:06:13.791Z,0.73
2018-05-09T15:08:42.087Z,0.68
2018-05-09T15:11:09.518Z,0.40
2018-05-09T15:13:36.985Z,0.60
2018-05-09T15:16:04.511Z,0.80
2018-05-09T15:18:32.745Z,0.80
2018-05-09T15:21:00.224Z,0.50
2018-05-09T15:23:27.725Z,0.80
2018-05-09T15:25:56.060Z,1.00
2018-05-09T15:28:23.592Z,0.73
2018-05-09T15:30:51.268Z,0.77
2018-05-09T15:33:19.508Z,0.70
2018-05-09T15:35:46.980Z,0.70
2018-05-09T15:38:14.469Z,0.93
2018-05-09T15:40:41.934Z,0.80
2018-05-09T15:43:09.777Z,0.90
2018-05-09T15:45:37.252Z,0.90
2018-05-09T15:48:04.740Z,0.90
2018-05-09T15:50:32.983Z,0.62
2018-05-09T15:53:01.253Z,0.82
2018-05-09T15:55:28.755Z,0.73
2018-05-09T15:57:56.279Z,0.75
2018-05-09T16:00:23.752Z,1.00
2018-05-09T16:02:51.272Z,0.98
2018-05-09T16:05:18.744Z,1.15
2018-05-09T16:07:46.271Z,0.60
2018-05-09T16:10:13.937Z,1.00
2018-05-09T16:12:41.455Z,0.98
2018-05-09T16:15:08.940Z,0.98
2018-05-09T16:17:36.453Z,0.70
2018-05-09T16:20:03.979Z,0.75
2018-05-09T16:22:31.560Z,0.50
2018-05-09T16:24:58.972Z,0.70
2018-05-09T16:27:26.571Z,1.70
2018-05-09T16:29:54.127Z,1.10
2018-05-09T16:32:21.773Z,0.93
2018-05-09T16:34:50.025Z,0.80
2018-05-09T16:37:17.517Z,1.20
2018-05-09T16:39:45.046Z,1.10
2018-05-09T16:42:12.544Z,0.80
2018-05-09T16:44:40.185Z,1.03
2018-05-09T16:47:07.680Z,0.63
2018-05-09T16:49:35.301Z,0.60
2018-05-09T16:52:02.827Z,1.10
2018-05-09T16:54:31.098Z,0.83
2018-05-09T16:56:58.587Z,0.60
2018-05-09T16:59:26.933Z,0.70
2018-05-09T17:01:54.468Z,0.60
2018-05-09T17:04:22.009Z,0.80
2018-05-09T17:06:50.309Z,0.70
2018-05-09T17:09:17.800Z,0.90
2018-05-09T17:11:45.779Z,0.60
2018-05-09T17:14:13.253Z,1.20
2018-05-09T17:16:40.748Z,0.80
2018-05-09T17:19:08.259Z,1.00
2018-05-09T17:21:47.575Z,1.10
2018-05-09T17:24:15.043Z,0.70
2018-05-09T17:26:42.542Z,0.83
2018-05-09T17:29:10.012Z,0.80
2018-05-09T17:31:37.496Z,1.13
2018-05-09T17:34:05.744Z,1.10
2018-05-09T17:36:33.248Z,0.70
2018-05-09T17:39:00.728Z,0.80
2018-05-09T17:41:28.299Z,0.90
2018-05-09T17:43:55.867Z,1.03
2018-05-09T17:46:23.402Z,0.73
2018-05-09T17:48:51.691Z,0.90
2018-05-09T17:51:19.227Z,1.07
2018-05-09T17:53:47.457Z,1.10
2018-05-09T17:56:15.104Z,0.80
2018-05-09T17:58:42.701Z,1.27
2018-05-09T18:01:10.109Z,1.37
2018-05-09T18:03:37.601Z,1.00
2018-05-09T18:06:05.838Z,0.73
2018-05-09T18:08:33.337Z,1.10
2018-05-09T18:11:00.818Z,1.20
2018-05-09T18:13:28.499Z,1.10
2018-05-09T18:15:56.843Z,0.87
2018-05-09T18:18:24.341Z,1.10
2018-05-09T18:20:51.894Z,0.87
2018-05-09T18:23:19.389Z,1.00
2018-05-09T18:25:46.872Z,0.97
2018-05-09T18:28:14.355Z,1.00
2018-05-09T18:30:42.604Z,1.30
2018-05-09T18:33:10.084Z,1.87
2018-05-09T18:35:37.567Z,1.43
2018-05-09T18:38:05.060Z,2.07
2018-05-09T18:40:33.338Z,2.57
2018-05-09T18:43:01.668Z,2.60
2018-05-09T18:45:29.233Z,2.37
2018-05-09T18:47:56.787Z,1.73
2018-05-09T18:50:24.291Z,1.47
2018-05-09T18:52:51.777Z,1.73
2018-05-09T18:55:19.297Z,1.90
2018-05-09T18:57:47.530Z,1.60
2018-05-09T19:00:15.490Z,1.57
2018-05-09T19:02:42.971Z,1.60
2018-05-09T19:05:11.002Z,1.20
2018-05-09T19:07:39.294Z,1.30
2018-05-09T19:10:06.811Z,1.20
2018-05-09T19:12:34.317Z,1.63
2018-05-09T19:15:01.839Z,1.40
2018-05-09T19:17:29.352Z,1.53
2018-05-09T19:19:56.904Z,1.40
2018-05-09T19:22:24.422Z,1.60
2018-05-09T19:24:52.702Z,0.90
2018-05-09T19:27:20.177Z,1.20
2018-05-09T19:29:47.674Z,1.67
2018-05-09T19:32:16.027Z,1.40
2018-05-09T19:34:43.553Z,1.33
2018-05-09T19:37:11.122Z,1.53
2018-05-09T19:39:38.615Z,1.30
2018-05-09T19:42:06.106Z,1.37
2018-05-09T19:44:33.582Z,1.20
2018-05-09T19:49:36.157Z,1.40
2018-05-09T19:52:03.633Z,1.27
2018-05-09T19:54:31.129Z,1.30
2018-05-09T19:56:58.635Z,1.03
2018-05-09T19:59:26.114Z,1.50
2018-05-09T20:01:54.386Z,1.03
2018-05-09T20:04:21.862Z,1.20
2018-05-09T20:06:49.389Z,1.03
2018-05-09T20:09:16.885Z,1.20
2018-05-09T20:11:44.375Z,1.10
2018-05-09T20:14:11.931Z,0.90
2018-05-09T20:16:39.416Z,1.40
2018-05-09T20:19:06.876Z,1.10
2018-05-09T20:21:34.352Z,1.00
2018-05-09T20:24:01.857Z,1.50
2018-05-09T20:26:29.445Z,1.17
2018-05-09T20:29:01.669Z,1.47
2018-05-09T20:31:46.832Z,0.90
2018-05-09T20:34:14.325Z,1.97
2018-05-09T20:36:41.794Z,0.87
2018-05-09T20:39:09.288Z,1.50
2018-05-09T20:41:36.848Z,1.17
2018-05-09T20:44:04.398Z,1.10
2018-05-09T20:46:32.049Z,1.20
2018-05-09T20:48:59.640Z,1.10
2018-05-09T20:51:39.153Z,0.97
2018-05-09T20:54:06.707Z,1.57
2018-05-09T20:56:34.249Z,1.30
2018-05-09T20:59:01.892Z,1.10
2018-05-09T21:04:28.689Z,0.97
2018-05-09T21:06:56.961Z,1.00
2018-05-09T21:09:25.244Z,1.00
2018-05-09T21:12:04.747Z,0.80
2018-05-09T21:14:32.389Z,0.97
2018-05-09T21:16:59.905Z,0.80
2018-05-09T21:19:27.473Z,0.97
2018-05-09T21:21:54.987Z,0.70
2018-05-09T21:24:22.548Z,1.10
2018-05-09T21:26:50.049Z,0.70
2018-05-09T21:29:18.332Z,0.50
2018-05-09T21:31:45.817Z,0.70
2018-05-09T21:34:14.065Z,0.80
2018-05-09T21:36:41.557Z,0.93
2018-05-09T21:39:09.038Z,0.83
2018-05-09T21:41:37.288Z,1.00
2018-05-09T21:44:05.534Z,1.40
2018-05-09T21:46:33.803Z,0.93
2018-05-09T21:49:01.289Z,0.77
2018-05-09T21:51:29.560Z,1.00
2018-05-09T21:53:57.128Z,0.90
2018-05-09T21:56:24.708Z,1.37
2018-05-09T21:58:52.956Z,0.90
2018-05-09T22:01:23.283Z,0.97
2018-05-09T22:03:50.809Z,1.13
2018-05-09T22:06:18.433Z,0.70
2018-05-09T22:08:45.910Z,0.87
2018-05-09T22:11:13.425Z,0.53
2018-05-09T22:13:41.668Z,0.67
2018-05-09T22:16:09.158Z,0.40
2018-05-09T22:18:36.643Z,0.80
2018-05-09T22:21:04.130Z,0.70
2018-05-09T22:23:32.389Z,0.60
2018-05-09T22:25:59.877Z,0.70
2018-05-09T22:28:27.377Z,0.83
2018-05-09T22:30:54.853Z,0.60
2018-05-09T22:33:22.348Z,0.50
2018-05-09T22:35:49.840Z,0.77
2018-05-09T22:38:17.453Z,0.57
2018-05-09T22:40:44.946Z,0.77
2018-05-09T22:43:12.433Z,1.00
2018-05-09T22:45:39.901Z,0.50
2018-05-09T22:48:07.417Z,0.60
2018-05-09T22:50:34.899Z,0.80
2018-05-09T22:53:02.396Z,0.70
2018-05-09T22:55:29.900Z,0.40
2018-05-09T22:57:57.467Z,0.80
2018-05-09T23:00:25.825Z,0.90
2018-05-09T23:02:53.403Z,0.60
2018-05-09T23:05:20.882Z,0.80
2018-05-09T23:07:48.430Z,1.00
2018-05-09T23:10:16.738Z,1.10
2018-05-09T23:12:44.245Z,0.70
2018-05-09T23:15:11.736Z,1.03
2018-05-09T23:17:39.265Z,1.23
2018-05-09T23:20:07.349Z,1.17
2018-05-09T23:22:34.811Z,0.80
2018-05-09T23:25:02.315Z,0.83
2018-05-09T23:27:29.785Z,1.27
2018-05-09T23:29:57.391Z,1.20
2018-05-09T23:32:24.861Z,1.30
2018-05-09T23:34:52.389Z,1.10
2018-05-09T23:37:19.867Z,1.10
2018-05-09T23:39:47.369Z,1.00
2018-05-09T23:42:14.862Z,0.70
2018-05-09T23:44:43.140Z,1.30
2018-05-09T23:47:10.632Z,1.13
2018-05-09T23:49:38.982Z,1.20
2018-05-09T23:52:06.552Z,1.67
2018-05-09T23:54:34.716Z,0.97
2018-05-09T23:57:02.222Z,0.93
2018-05-09T23:59:29.705Z,1.20
